createdAt,value
2022-10-10T00:01:07.743Z,100.00
2022-10-10T00:06:32.987Z,100.00
2022-10-10T00:11:55.313Z,100.00
2022-10-10T00:17:17.350Z,100.00
2022-10-10T00:22:39.934Z,100.00
2022-10-10T00:28:04.124Z,100.00
2022-10-10T00:33:26.039Z,100.00
2022-10-10T00:38:48.308Z,100.00
2022-10-10T00:44:15.543Z,100.00
2022-10-10T00:49:41.716Z,100.00
2022-10-10T00:55:03.886Z,100.00
2022-10-10T01:00:25.722Z,100.00
2022-10-10T01:05:48.398Z,100.00
2022-10-10T01:11:22.117Z,100.00
2022-10-10T01:17:02.294Z,100.00
2022-10-10T01:22:39.409Z,100.00
2022-10-10T01:28:10.872Z,100.00
2022-10-10T01:33:54.938Z,100.00
2022-10-10T01:39:46.320Z,100.00
2022-10-10T01:45:08.674Z,100.00
2022-10-10T01:50:44.843Z,100.00
2022-10-10T01:56:22.983Z,100.00
2022-10-10T02:02:00.709Z,100.00
2022-10-10T02:07:30.782Z,100.00
2022-10-10T02:12:54.940Z,100.00
2022-10-10T02:18:20.030Z,100.00
2022-10-10T02:23:47.456Z,100.00
2022-10-10T02:29:25.798Z,100.00
2022-10-10T02:34:52.211Z,100.00
2022-10-10T02:40:24.244Z,100.00
2022-10-10T02:45:46.610Z,100.00
2022-10-10T02:51:09.645Z,100.00
2022-10-10T02:56:31.574Z,100.00
2022-10-10T03:01:53.420Z,100.00
2022-10-10T03:07:15.212Z,100.00
2022-10-10T03:12:37.516Z,100.00
2022-10-10T03:17:59.330Z,100.00
2022-10-10T03:23:21.381Z,100.00
2022-10-10T03:28:43.210Z,100.00
2022-10-10T03:34:05.438Z,100.00
2022-10-10T03:39:27.350Z,100.00
2022-10-10T03:44:49.171Z,100.00
2022-10-10T03:50:11.048Z,100.00
2022-10-10T03:55:32.864Z,100.00
2022-10-10T04:01:00.196Z,100.00
2022-10-10T04:06:22.375Z,100.00
2022-10-10T04:11:44.237Z,100.00
2022-10-10T04:17:06.043Z,100.00
2022-10-10T04:22:27.888Z,100.00
2022-10-10T04:27:49.883Z,100.00
2022-10-10T04:33:12.002Z,100.00
2022-10-10T04:38:35.182Z,100.00
2022-10-10T04:43:57.028Z,100.00
2022-10-10T04:49:18.980Z,100.00
2022-10-10T04:54:40.814Z,100.00
2022-10-10T05:00:04.990Z,100.00
2022-10-10T05:05:26.846Z,100.00
2022-10-10T05:10:48.672Z,100.00
2022-10-10T05:16:10.846Z,100.00
2022-10-10T05:21:32.675Z,100.00
2022-10-10T05:26:54.518Z,100.00
2022-10-10T05:32:16.574Z,100.00
2022-10-10T05:37:38.475Z,100.00
2022-10-10T05:43:00.491Z,100.00
2022-10-10T05:48:22.790Z,100.00
2022-10-10T05:53:44.736Z,100.00
2022-10-10T05:59:06.621Z,100.00
2022-10-10T06:04:28.466Z,100.00
2022-10-10T06:09:50.307Z,100.00
2022-10-10T06:15:12.118Z,100.00
2022-10-10T06:20:36.266Z,100.00
2022-10-10T06:25:58.084Z,100.00
2022-10-10T06:31:20.043Z,100.00
2022-10-10T06:36:41.944Z,100.00
2022-10-10T06:42:03.907Z,100.00
2022-10-10T06:47:25.861Z,100.00
2022-10-10T06:52:48.748Z,97.84
2022-10-10T06:58:10.849Z,89.03
2022-10-10T07:08:54.647Z,86.86
2022-10-10T07:14:16.576Z,78.08
2022-10-10T07:19:38.357Z,76.67
2022-10-10T07:25:00.442Z,80.06
2022-10-10T07:30:23.166Z,79.65
2022-10-10T07:35:52.870Z,68.46
2022-10-10T07:41:14.739Z,62.91
2022-10-10T07:46:36.557Z,56.08
2022-10-10T07:52:00.431Z,55.71
2022-10-10T07:57:23.306Z,48.81
2022-10-10T08:02:45.151Z,47.37
2022-10-10T08:08:07.034Z,49.46
2022-10-10T08:13:28.855Z,45.68
2022-10-10T08:18:50.784Z,44.85
2022-10-10T08:24:12.972Z,46.94
2022-10-10T08:29:34.791Z,45.55
2022-10-10T08:34:56.646Z,45.81
2022-10-10T08:40:21.589Z,45.14
2022-10-10T08:45:44.074Z,43.49
2022-10-10T08:51:14.154Z,40.51
2022-10-10T08:56:36.623Z,38.52
2022-10-10T09:02:19.329Z,39.77
2022-10-10T09:08:05.368Z,37.95
2022-10-10T09:13:33.550Z,38.93
2022-10-10T09:19:17.494Z,36.81
2022-10-10T09:24:51.215Z,41.47
2022-10-10T09:30:20.048Z,40.87
2022-10-10T09:35:42.539Z,42.25
2022-10-10T09:41:29.764Z,41.36
2022-10-10T09:46:52.702Z,43.47
2022-10-10T09:52:26.924Z,43.11
2022-10-10T09:57:52.317Z,45.13
2022-10-10T10:03:19.599Z,44.88
2022-10-10T10:08:42.761Z,57.68
2022-10-10T10:14:04.892Z,60.87
2022-10-10T10:19:46.125Z,63.75
2022-10-10T10:25:31.427Z,67.55
2022-10-10T10:30:55.488Z,64.25
2022-10-10T10:36:29.439Z,66.83
2022-10-10T10:42:04.842Z,66.67
2022-10-10T10:47:32.735Z,67.36
2022-10-10T10:53:19.991Z,66.08
2022-10-10T11:05:17.267Z,65.13
2022-10-10T11:10:59.397Z,63.40
2022-10-10T11:16:47.806Z,62.54
2022-10-10T11:22:22.535Z,61.31
2022-10-10T11:27:57.749Z,59.37
2022-10-10T11:33:27.838Z,58.02
2022-10-10T11:39:15.371Z,56.97
2022-10-10T11:44:57.936Z,56.92
2022-10-10T11:50:26.856Z,56.98
2022-10-10T11:56:08.904Z,56.95
2022-10-10T12:01:43.388Z,56.66
2022-10-10T12:07:13.819Z,57.34
2022-10-10T12:12:43.444Z,57.26
2022-10-10T12:18:05.502Z,58.54
2022-10-10T12:23:30.675Z,59.49
2022-10-10T12:29:37.218Z,59.52
2022-10-10T12:35:01.090Z,59.69
2022-10-10T12:40:23.117Z,60.12
2022-10-10T12:46:18.999Z,58.54
2022-10-10T12:51:41.928Z,59.31
2022-10-10T12:57:27.979Z,57.87
2022-10-10T13:02:54.309Z,58.33
2022-10-10T13:08:20.156Z,57.41
2022-10-10T13:13:53.949Z,54.94
2022-10-10T13:19:21.909Z,53.80
2022-10-10T13:24:45.486Z,52.59
2022-10-10T13:30:08.033Z,51.20
2022-10-10T13:35:30.235Z,49.61
2022-10-10T13:40:52.456Z,49.55
2022-10-10T13:46:30.689Z,48.84
2022-10-10T13:52:23.500Z,47.33
2022-10-10T13:57:45.361Z,47.07
2022-10-10T14:03:19.974Z,46.90
2022-10-10T14:08:41.847Z,46.97
2022-10-10T14:14:16.438Z,47.17
2022-10-10T14:19:38.703Z,46.89
2022-10-10T14:25:00.698Z,46.28
2022-10-10T14:30:22.528Z,46.13
2022-10-10T14:35:46.050Z,45.70
2022-10-10T14:41:10.588Z,45.26
2022-10-10T14:46:32.494Z,45.98
2022-10-10T14:51:54.283Z,46.84
2022-10-10T14:57:16.094Z,48.28
2022-10-10T15:02:43.195Z,49.94
2022-10-10T15:08:08.295Z,50.38
2022-10-10T15:13:30.355Z,51.25
2022-10-10T15:18:54.388Z,52.05
2022-10-10T15:24:16.842Z,52.63
2022-10-10T15:29:39.489Z,53.40
2022-10-10T15:35:01.310Z,54.25
2022-10-10T15:40:23.951Z,55.19
2022-10-10T15:45:55.839Z,55.80
2022-10-10T15:51:18.516Z,57.15
2022-10-10T15:56:42.189Z,58.38
2022-10-10T16:02:04.038Z,59.80
2022-10-10T16:07:29.897Z,60.59
2022-10-10T16:12:54.597Z,62.02
2022-10-10T16:18:16.506Z,62.65
2022-10-10T16:23:38.617Z,64.30
2022-10-10T16:29:01.664Z,65.38
2022-10-10T16:34:23.684Z,66.80
2022-10-10T16:39:45.513Z,67.58
2022-10-10T16:45:07.947Z,68.79
2022-10-10T16:50:29.737Z,70.56
2022-10-10T16:55:51.803Z,71.82
2022-10-10T17:01:16.201Z,72.67
2022-10-10T17:06:38.198Z,73.39
2022-10-10T17:12:00.118Z,74.70
2022-10-10T17:17:21.949Z,75.26
2022-10-10T17:22:43.847Z,76.42
2022-10-10T17:28:05.775Z,76.83
2022-10-10T17:33:27.674Z,77.56
2022-10-10T17:38:49.539Z,78.18
2022-10-10T17:44:11.451Z,78.70
2022-10-10T17:49:33.523Z,79.04
2022-10-10T17:54:55.501Z,80.22
2022-10-10T18:00:17.541Z,80.35
2022-10-10T18:05:39.641Z,81.13
2022-10-10T18:11:02.298Z,80.86
2022-10-10T18:16:24.222Z,81.64
2022-10-10T18:21:46.053Z,82.32
2022-10-10T18:27:07.902Z,82.75
2022-10-10T18:32:29.768Z,83.47
2022-10-10T18:37:51.640Z,83.87
2022-10-10T18:43:13.518Z,84.54
2022-10-10T18:48:36.728Z,84.84
2022-10-10T18:54:03.760Z,84.91
2022-10-10T18:59:25.610Z,85.96
2022-10-10T19:04:47.478Z,86.36
2022-10-10T19:10:09.337Z,86.19
2022-10-10T19:15:33.662Z,86.92
2022-10-10T19:21:03.267Z,86.52
2022-10-10T19:26:25.459Z,86.42
2022-10-10T19:31:47.329Z,87.40
2022-10-10T19:37:09.389Z,87.25
2022-10-10T19:42:31.610Z,88.09
2022-10-10T19:47:53.541Z,87.84
2022-10-10T19:53:17.494Z,87.95
2022-10-10T19:58:39.656Z,88.42
2022-10-10T20:04:01.818Z,88.93
2022-10-10T20:09:23.896Z,88.89
2022-10-10T20:14:45.827Z,89.77
2022-10-10T20:20:08.171Z,90.79
2022-10-10T20:25:30.292Z,89.80
2022-10-10T20:30:52.239Z,91.39
2022-10-10T20:36:14.859Z,91.49
2022-10-10T20:41:38.080Z,92.30
2022-10-10T20:46:59.991Z,92.19
2022-10-10T20:52:21.805Z,92.62
2022-10-10T20:57:43.721Z,93.08
2022-10-10T21:03:05.568Z,93.17
2022-10-10T21:08:28.260Z,93.04
2022-10-10T21:13:56.111Z,93.27
2022-10-10T21:19:18.119Z,93.81
2022-10-10T21:24:39.988Z,94.30
2022-10-10T21:30:01.872Z,93.77
2022-10-10T21:35:23.752Z,94.17
2022-10-10T21:40:46.100Z,93.50
2022-10-10T21:46:12.056Z,94.19
2022-10-10T21:51:43.177Z,94.91
2022-10-10T21:57:04.987Z,94.59
2022-10-10T22:02:26.856Z,95.23
2022-10-10T22:07:48.684Z,94.63
2022-10-10T22:13:10.548Z,94.42
2022-10-10T22:18:32.709Z,94.38
2022-10-10T22:23:54.560Z,93.64
2022-10-10T22:29:16.444Z,93.94
2022-10-10T22:34:38.456Z,92.83
2022-10-10T22:40:00.349Z,93.27
2022-10-10T22:45:23.099Z,92.78
2022-10-10T22:50:44.922Z,92.47
2022-10-10T22:56:07.841Z,92.01
2022-10-10T23:01:29.891Z,92.63
2022-10-10T23:06:51.801Z,92.57
2022-10-10T23:12:14.053Z,92.30
2022-10-10T23:17:36.637Z,91.80
2022-10-10T23:22:58.617Z,91.20
2022-10-10T23:28:20.700Z,91.74
2022-10-10T23:33:42.972Z,92.02
2022-10-10T23:39:09.591Z,91.89
2022-10-10T23:44:31.976Z,92.96
2022-10-10T23:49:53.847Z,92.66
2022-10-10T23:55:15.874Z,93.73
